createdAt,value
2022-10-17T00:01:16.085Z,98167.09
2022-10-17T00:03:44.509Z,98173.44
2022-10-17T00:06:15.396Z,98177.31
2022-10-17T00:08:45.097Z,98180.91
2022-10-17T00:11:17.796Z,98181.22
2022-10-17T00:13:46.510Z,98183.97
2022-10-17T00:16:17.197Z,98187.56
2022-10-17T00:18:45.626Z,98189.19
2022-10-17T00:21:17.925Z,98199.44
2022-10-17T00:23:46.368Z,98203.00
2022-10-17T00:26:15.705Z,98194.72
2022-10-17T00:28:46.721Z,98210.50
2022-10-17T00:31:18.272Z,98202.19
2022-10-17T00:33:47.205Z,98200.25
2022-10-17T00:36:19.389Z,98203.00
2022-10-17T00:38:49.639Z,98195.53
2022-10-17T00:41:21.230Z,98205.78
2022-10-17T00:43:51.477Z,98208.53
2022-10-17T00:46:23.637Z,98205.78
2022-10-17T00:48:54.550Z,98210.19
2022-10-17T00:51:29.756Z,98212.13
2022-10-17T00:53:58.679Z,98211.31
2022-10-17T00:56:27.640Z,98200.25
2022-10-17T00:58:56.499Z,98201.06
2022-10-17T01:01:26.664Z,98200.25
2022-10-17T01:03:57.261Z,98203.00
2022-10-17T01:06:25.680Z,98204.16
2022-10-17T01:08:54.298Z,98204.16
2022-10-17T01:11:33.905Z,98209.34
2022-10-17T01:14:10.096Z,98205.78
2022-10-17T01:16:52.001Z,98205.78
2022-10-17T01:19:39.690Z,98206.59
2022-10-17T01:22:13.968Z,98210.50
2022-10-17T01:24:54.089Z,98209.66
2022-10-17T01:27:49.679Z,98204.16
2022-10-17T01:31:03.869Z,98196.34
2022-10-17T01:33:43.376Z,98203.00
2022-10-17T01:36:16.422Z,98202.50
2022-10-17T01:38:49.121Z,98212.44
2022-10-17T01:41:27.968Z,98204.16
2022-10-17T01:44:01.450Z,98204.16
2022-10-17T01:46:36.965Z,98202.50
2022-10-17T01:49:08.998Z,98196.97
2022-10-17T01:51:42.155Z,98201.69
2022-10-17T01:54:14.682Z,98201.38
2022-10-17T01:56:45.712Z,98199.75
2022-10-17T01:59:18.673Z,98200.56
2022-10-17T02:01:52.085Z,98202.50
2022-10-17T02:04:21.285Z,98202.50
2022-10-17T02:06:49.691Z,98199.75
2022-10-17T02:09:20.303Z,98196.97
2022-10-17T02:12:02.080Z,98201.69
2022-10-17T02:14:44.699Z,98191.47
2022-10-17T02:17:28.082Z,98195.34
2022-10-17T02:20:08.941Z,98199.75
2022-10-17T02:22:42.901Z,98196.16
2022-10-17T02:25:18.841Z,98190.63
2022-10-17T02:27:53.740Z,98198.13
2022-10-17T02:30:32.342Z,98193.72
2022-10-17T02:33:08.117Z,98191.47
2022-10-17T02:35:44.273Z,98179.91
2022-10-17T02:38:14.745Z,98190.63
2022-10-17T02:40:45.664Z,98200.88
2022-10-17T02:43:15.341Z,98196.16
2022-10-17T02:45:43.776Z,98198.63
2022-10-17T02:48:20.308Z,98199.44
2022-10-17T02:50:58.938Z,98190.31
2022-10-17T02:53:33.585Z,98190.31
2022-10-17T02:56:09.871Z,98198.63
2022-10-17T02:58:40.567Z,98193.09
2022-10-17T03:01:09.719Z,98204.97
2022-10-17T03:03:39.664Z,98212.44
2022-10-17T03:06:08.081Z,98207.22
2022-10-17T03:11:10.019Z,98208.03
2022-10-17T03:13:39.867Z,98217.47
2022-10-17T03:16:09.109Z,98217.47
2022-10-17T03:18:40.921Z,98213.56
2022-10-17T03:21:09.729Z,98216.63
2022-10-17T03:23:38.234Z,98220.22
2022-10-17T03:26:08.486Z,98217.47
2022-10-17T03:28:37.570Z,98222.16
2022-10-17T03:31:10.402Z,98222.97
2022-10-17T03:33:41.321Z,98222.16
2022-10-17T03:36:12.449Z,98222.16
2022-10-17T03:38:40.920Z,98222.16
2022-10-17T03:41:10.110Z,98227.69
2022-10-17T03:43:40.478Z,98230.44
2022-10-17T03:46:09.783Z,98232.41
2022-10-17T03:48:39.161Z,98234.03
2022-10-17T03:51:10.856Z,98234.03
2022-10-17T03:53:53.051Z,98240.38
2022-10-17T03:56:23.814Z,98244.28
2022-10-17T03:58:58.872Z,98245.09
2022-10-17T04:01:28.687Z,98250.63
2022-10-17T04:03:58.247Z,98260.03
2022-10-17T04:06:32.156Z,98261.66
2022-10-17T04:09:01.409Z,98255.63
2022-10-17T04:11:38.252Z,98255.31
2022-10-17T04:14:06.768Z,98248.97
2022-10-17T04:16:35.209Z,98257.28
2022-10-17T04:19:14.035Z,98261.66
2022-10-17T04:21:47.726Z,98260.03
2022-10-17T04:24:16.933Z,98262.78
2022-10-17T04:26:56.950Z,98263.59
2022-10-17T04:29:29.165Z,98263.91
2022-10-17T04:32:07.689Z,98266.38
2022-10-17T04:34:49.917Z,98271.91
2022-10-17T04:37:20.744Z,98273.84
2022-10-17T04:39:51.405Z,98269.44
2022-10-17T04:42:19.868Z,98269.44
2022-10-17T04:44:49.003Z,98269.44
2022-10-17T04:47:19.686Z,98269.44
2022-10-17T04:49:48.261Z,98271.41
2022-10-17T04:52:17.866Z,98277.75
2022-10-17T04:54:50.951Z,98292.38
2022-10-17T04:57:20.484Z,98286.03
2022-10-17T05:00:06.525Z,98287.66
2022-10-17T05:02:58.030Z,98289.31
2022-10-17T05:05:27.973Z,98294.81
2022-10-17T05:07:57.598Z,98297.59
2022-10-17T05:10:31.531Z,98287.66
2022-10-17T05:13:00.528Z,98292.38
2022-10-17T05:15:32.461Z,98291.56
2022-10-17T05:18:01.043Z,98293.50
2022-10-17T05:20:31.011Z,98293.81
2022-10-17T05:23:00.491Z,98289.91
2022-10-17T05:25:35.017Z,98292.69
2022-10-17T05:28:03.419Z,98292.69
2022-10-17T05:30:35.226Z,98289.91
2022-10-17T05:33:08.370Z,98295.44
2022-10-17T05:35:37.401Z,98295.44
2022-10-17T05:38:07.345Z,98297.09
2022-10-17T05:40:39.370Z,98298.22
2022-10-17T05:43:07.809Z,98294.63
2022-10-17T05:45:37.633Z,98302.09
2022-10-17T05:48:08.965Z,98296.56
2022-10-17T05:50:37.512Z,98298.22
2022-10-17T05:53:11.776Z,98296.25
2022-10-17T05:55:47.278Z,98295.44
2022-10-17T05:58:22.300Z,98298.50
2022-10-17T06:01:03.655Z,98299.34
2022-10-17T06:03:32.610Z,98308.75
2022-10-17T06:06:05.830Z,98313.25
2022-10-17T06:08:34.987Z,98309.97
2022-10-17T06:11:07.633Z,98312.25
2022-10-17T06:13:38.969Z,98307.84
2022-10-17T06:16:13.509Z,98317.25
2022-10-17T06:18:41.955Z,98329.44
2022-10-17T06:21:12.454Z,98325.53
2022-10-17T06:23:46.404Z,98338.22
2022-10-17T06:26:28.486Z,98329.94
2022-10-17T06:28:57.236Z,98333.81
2022-10-17T06:31:26.814Z,98343.75
2022-10-17T06:33:55.382Z,98347.03
2022-10-17T06:36:24.462Z,98343.44
2022-10-17T06:38:53.102Z,98348.66
2022-10-17T06:41:41.173Z,98354.19
2022-10-17T06:44:11.231Z,98354.19
2022-10-17T06:46:50.633Z,98347.22
2022-10-17T06:49:19.968Z,98344.78
2022-10-17T06:51:53.721Z,98352.25
2022-10-17T06:54:29.245Z,98352.56
2022-10-17T06:57:27.151Z,98359.72
2022-10-17T07:00:23.313Z,98355.31
2022-10-17T07:02:55.390Z,98367.50
2022-10-17T07:05:25.125Z,98368.31
2022-10-17T07:07:53.666Z,98371.38
2022-10-17T07:10:22.148Z,98376.91
2022-10-17T07:12:51.993Z,98373.63
2022-10-17T07:15:20.436Z,98379.16
2022-10-17T07:17:50.297Z,98384.69
2022-10-17T07:20:19.925Z,98380.78
2022-10-17T07:22:48.538Z,98393.47
2022-10-17T07:25:17.073Z,98382.44
2022-10-17T07:27:53.040Z,98382.44
2022-10-17T07:30:23.318Z,98395.13
2022-10-17T07:32:59.806Z,98397.88
2022-10-17T07:35:28.395Z,98400.66
2022-10-17T07:37:56.904Z,98399.53
2022-10-17T07:40:25.593Z,98403.91
2022-10-17T07:42:56.536Z,98401.66
2022-10-17T07:45:27.584Z,98407.19
2022-10-17T07:47:57.347Z,98404.44
2022-10-17T07:50:26.202Z,98398.59
2022-10-17T07:52:54.621Z,98391.13
2022-10-17T07:55:23.050Z,98398.28
2022-10-17T07:57:51.480Z,98384.47
2022-10-17T08:00:21.427Z,98391.63
2022-10-17T08:02:49.902Z,98382.22
2022-10-17T08:05:18.458Z,98381.59
2022-10-17T08:07:47.182Z,98372.81
2022-10-17T08:10:16.996Z,98366.34
2022-10-17T08:12:45.394Z,98362.16
2022-10-17T08:15:13.856Z,98359.09
2022-10-17T08:17:43.630Z,98368.00
2022-10-17T08:20:13.195Z,98381.19
2022-10-17T08:22:41.719Z,98369.84
2022-10-17T08:25:11.117Z,98367.06
2022-10-17T08:27:39.676Z,98353.25
2022-10-17T08:30:09.509Z,98354.38
2022-10-17T08:32:38.018Z,98356.03
2022-10-17T08:35:08.667Z,98376.38
2022-10-17T08:37:37.171Z,98373.00
2022-10-17T08:40:06.593Z,98378.94
2022-10-17T08:42:52.038Z,98379.75
2022-10-17T08:45:28.508Z,98383.84
2022-10-17T08:48:00.268Z,98383.53
2022-10-17T08:50:36.298Z,98384.84
2022-10-17T08:53:11.163Z,98383.13
2022-10-17T08:55:44.540Z,98385.25
2022-10-17T08:58:16.274Z,98387.72
2022-10-17T09:00:51.401Z,98397.34
2022-10-17T09:03:33.735Z,98389.56
2022-10-17T09:06:13.739Z,98394.78
2022-10-17T09:08:50.594Z,98400.81
2022-10-17T09:11:26.170Z,98407.16
2022-10-17T09:14:06.113Z,98403.78
2022-10-17T09:16:48.514Z,98409.31
2022-10-17T09:19:20.680Z,98417.09
2022-10-17T09:21:56.323Z,98420.47
2022-10-17T09:24:35.435Z,98420.47
2022-10-17T09:27:04.714Z,98424.38
2022-10-17T09:29:37.919Z,98422.72
2022-10-17T09:32:20.507Z,98422.72
2022-10-17T09:37:19.047Z,98430.53
2022-10-17T09:39:47.517Z,98434.41
2022-10-17T09:42:19.279Z,98429.38
2022-10-17T09:44:53.121Z,98426.94
2022-10-17T09:47:30.816Z,98429.69
2022-10-17T09:49:59.422Z,98428.88
2022-10-17T09:52:34.164Z,98434.41
2022-10-17T09:55:06.525Z,98428.88
2022-10-17T09:57:54.407Z,98427.25
2022-10-17T10:00:25.697Z,98434.41
2022-10-17T10:03:10.197Z,98434.41
2022-10-17T10:05:38.650Z,98433.59
2022-10-17T10:08:15.830Z,98435.53
2022-10-17T10:10:45.593Z,98436.66
2022-10-17T10:13:20.316Z,98435.53
2022-10-17T10:15:51.189Z,98439.13
2022-10-17T10:18:34.749Z,98443.00
2022-10-17T10:21:13.270Z,98438.31
2022-10-17T10:23:44.279Z,98431.94
2022-10-17T10:26:27.373Z,98431.13
2022-10-17T10:28:59.847Z,98426.72
2022-10-17T10:31:32.965Z,98427.88
2022-10-17T10:34:08.088Z,98425.41
2022-10-17T10:36:46.814Z,98411.88
2022-10-17T10:39:28.966Z,98421.81
2022-10-17T10:41:57.790Z,98416.59
2022-10-17T10:44:29.317Z,98414.16
2022-10-17T10:47:21.553Z,98415.28
2022-10-17T10:49:51.930Z,98415.28
2022-10-17T10:52:37.007Z,98423.56
2022-10-17T10:55:18.696Z,98425.50
2022-10-17T10:57:51.222Z,98423.88
2022-10-17T11:00:24.215Z,98429.41
2022-10-17T11:03:01.876Z,98427.75
2022-10-17T11:05:42.094Z,98414.75
2022-10-17T11:08:21.328Z,98411.47
2022-10-17T11:11:13.751Z,98410.97
2022-10-17T11:13:49.596Z,98408.22
2022-10-17T11:16:29.770Z,98414.25
2022-10-17T11:19:06.012Z,98410.88
2022-10-17T11:21:42.629Z,98411.56
2022-10-17T11:24:19.167Z,98412.91
2022-10-17T11:26:55.108Z,98406.75
2022-10-17T11:29:27.886Z,98405.00
2022-10-17T11:32:00.459Z,98403.88
2022-10-17T11:34:33.215Z,98404.69
2022-10-17T11:37:06.530Z,98403.25
2022-10-17T11:39:48.448Z,98409.63
2022-10-17T11:42:24.586Z,98404.91
2022-10-17T11:44:59.765Z,98406.22
2022-10-17T11:47:39.237Z,98404.28
2022-10-17T11:53:13.244Z,98396.50
2022-10-17T11:55:42.858Z,98402.53
2022-10-17T11:58:30.415Z,98399.75
2022-10-17T12:01:08.766Z,98401.72
2022-10-17T12:03:50.416Z,98402.22
2022-10-17T12:06:29.569Z,98398.03
2022-10-17T12:09:07.562Z,98391.38
2022-10-17T12:11:50.737Z,98396.91
2022-10-17T12:14:43.925Z,98390.56
2022-10-17T12:17:32.914Z,98402.44
2022-10-17T12:20:32.338Z,98396.28
2022-10-17T12:23:18.364Z,98392.41
2022-10-17T12:25:52.586Z,98397.94
2022-10-17T12:28:28.078Z,98398.75
2022-10-17T12:31:01.036Z,98399.56
2022-10-17T12:33:34.118Z,98394.84
2022-10-17T12:36:45.665Z,98389.31
2022-10-17T12:39:49.211Z,98398.13
2022-10-17T12:42:51.603Z,98393.41
2022-10-17T12:45:49.212Z,98396.69
2022-10-17T12:49:06.548Z,98391.66
2022-10-17T12:52:15.858Z,98398.81
2022-10-17T12:55:00.222Z,98388.88
2022-10-17T12:57:42.099Z,98394.41
2022-10-17T13:00:32.736Z,98392.66
2022-10-17T13:03:08.066Z,98400.97
2022-10-17T13:05:39.284Z,98399.31
2022-10-17T13:08:17.052Z,98399.31
2022-10-17T13:10:51.551Z,98394.41
2022-10-17T13:13:23.338Z,98399.63
2022-10-17T13:15:53.786Z,98396.56
2022-10-17T13:18:24.815Z,98393.78
2022-10-17T13:20:58.902Z,98389.09
2022-10-17T13:23:32.854Z,98394.63
2022-10-17T13:26:05.126Z,98389.91
2022-10-17T13:28:38.425Z,98397.06
2022-10-17T13:31:08.396Z,98391.53
2022-10-17T13:33:39.886Z,98393.78
2022-10-17T13:36:15.640Z,98400.97
2022-10-17T13:38:45.606Z,98394.31
2022-10-17T13:41:34.722Z,98394.63
2022-10-17T13:44:08.617Z,98410.41
2022-10-17T13:46:39.965Z,98403.72
2022-10-17T13:49:23.204Z,98412.84
2022-10-17T13:51:56.168Z,98409.28
2022-10-17T13:54:35.069Z,98409.28
2022-10-17T13:57:05.307Z,98415.63
2022-10-17T13:59:39.919Z,98419.19
2022-10-17T14:02:16.209Z,98408.13
2022-10-17T14:05:15.174Z,98413.66
2022-10-17T14:08:05.441Z,98413.66
2022-10-17T14:10:31.688Z,98408.13
2022-10-17T14:13:01.849Z,98408.13
2022-10-17T14:15:31.810Z,98406.50
2022-10-17T14:18:07.497Z,98415.94
2022-10-17T14:23:35.605Z,98412.03
2022-10-17T14:26:12.640Z,98414.81
2022-10-17T14:28:42.972Z,98422.47
2022-10-17T14:31:30.068Z,98422.47
2022-10-17T14:33:58.900Z,98430.78
2022-10-17T14:36:36.704Z,98425.25
2022-10-17T14:39:13.297Z,98425.75
2022-10-17T14:41:46.826Z,98427.69
2022-10-17T14:44:20.627Z,98427.69
2022-10-17T14:46:54.000Z,98424.13
2022-10-17T14:49:28.881Z,98426.56
2022-10-17T14:52:30.955Z,98426.88
2022-10-17T14:55:01.636Z,98423.50
2022-10-17T14:57:43.808Z,98429.03
2022-10-17T15:00:15.970Z,98431.47
2022-10-17T15:02:45.273Z,98441.72
2022-10-17T15:05:14.125Z,98436.19
2022-10-17T15:07:43.509Z,98436.19
2022-10-17T15:10:25.464Z,98448.06
2022-10-17T15:12:59.167Z,98448.91
2022-10-17T15:15:33.923Z,98447.25
2022-10-17T15:18:02.983Z,98448.91
2022-10-17T15:20:32.220Z,98455.88
2022-10-17T15:23:02.997Z,98458.13
2022-10-17T15:25:34.152Z,98454.84
2022-10-17T15:28:03.975Z,98457.94
2022-10-17T15:30:35.886Z,98461.84
2022-10-17T15:33:04.554Z,98459.38
2022-10-17T15:35:33.063Z,98460.19
2022-10-17T15:38:01.479Z,98455.28
2022-10-17T15:40:30.946Z,98454.47
2022-10-17T15:42:59.385Z,98458.56
2022-10-17T15:45:29.245Z,98450.75
2022-10-17T15:48:02.428Z,98457.13
2022-10-17T15:50:30.941Z,98459.56
2022-10-17T15:53:00.213Z,98450.16
2022-10-17T15:55:28.984Z,98456.50
2022-10-17T15:57:57.496Z,98460.09
2022-10-17T16:00:25.991Z,98461.84
2022-10-17T16:02:55.851Z,98461.75
2022-10-17T16:05:28.397Z,98469.34
2022-10-17T16:07:57.841Z,98458.91
2022-10-17T16:10:26.731Z,98461.34
2022-10-17T16:12:56.160Z,98471.06
2022-10-17T16:15:26.556Z,98468.59
2022-10-17T16:18:00.527Z,98471.66
2022-10-17T16:20:31.970Z,98473.31
2022-10-17T16:23:02.906Z,98474.75
2022-10-17T16:25:32.930Z,98480.06
2022-10-17T16:28:02.009Z,98479.88
2022-10-17T16:30:31.591Z,98491.56
2022-10-17T16:33:01.504Z,98483.56
2022-10-17T16:35:34.806Z,98487.16
2022-10-17T16:38:06.344Z,98491.34
2022-10-17T16:40:35.527Z,98495.75
2022-10-17T16:43:03.952Z,98492.78
2022-10-17T16:45:32.497Z,98494.72
2022-10-17T16:48:02.306Z,98497.50
2022-10-17T16:50:31.159Z,98500.75
2022-10-17T16:52:59.646Z,98499.72
2022-10-17T16:55:28.289Z,98503.63
2022-10-17T16:57:56.931Z,98508.53
2022-10-17T17:00:26.223Z,98508.31
2022-10-17T17:02:55.088Z,98509.97
2022-10-17T17:05:24.943Z,98514.06
2022-10-17T17:07:53.401Z,98520.63
2022-10-17T17:10:21.862Z,98528.31
2022-10-17T17:12:50.307Z,98530.44
2022-10-17T17:15:18.784Z,98532.09
2022-10-17T17:17:53.590Z,98533.13
2022-10-17T17:20:25.251Z,98537.22
2022-10-17T17:22:53.687Z,98538.03
2022-10-17T17:25:22.757Z,98537.44
2022-10-17T17:27:51.224Z,98537.13
2022-10-17T17:30:19.800Z,98533.53
2022-10-17T17:32:48.461Z,98531.91
2022-10-17T17:35:17.273Z,98529.66
2022-10-17T17:37:47.077Z,98539.59
2022-10-17T17:40:15.568Z,98537.94
2022-10-17T17:42:44.197Z,98543.97
2022-10-17T17:45:12.951Z,98542.34
2022-10-17T17:47:41.451Z,98541.31
2022-10-17T17:50:10.511Z,98543.56
2022-10-17T17:52:41.822Z,98545.81
2022-10-17T17:55:12.012Z,98548.06
2022-10-17T17:57:40.449Z,98553.59
2022-10-17T18:00:09.997Z,98552.16
2022-10-17T18:02:42.138Z,98554.09
2022-10-17T18:05:12.838Z,98558.50
2022-10-17T18:07:41.357Z,98555.75
2022-10-17T18:12:44.398Z,98572.03
2022-10-17T18:15:13.534Z,98565.06
2022-10-17T18:17:42.565Z,98571.03
2022-10-17T18:20:12.031Z,98589.66
2022-10-17T18:22:40.495Z,98592.03
2022-10-17T18:25:10.797Z,98583.13
2022-10-17T18:27:39.330Z,98582.81
2022-10-17T18:30:09.358Z,98591.13
2022-10-17T18:32:37.872Z,98587.22
2022-10-17T18:35:06.992Z,98588.03
2022-10-17T18:37:35.593Z,98582.50
2022-10-17T18:40:04.233Z,98586.13
2022-10-17T18:42:34.047Z,98584.19
2022-10-17T18:45:05.516Z,98579.75
2022-10-17T18:47:33.980Z,98583.88
2022-10-17T18:50:02.461Z,98592.16
2022-10-17T18:52:30.974Z,98599.34
2022-10-17T18:54:59.454Z,98599.34
2022-10-17T18:57:28.279Z,98599.34
2022-10-17T18:59:58.312Z,98598.22
2022-10-17T19:02:26.840Z,98601.81
2022-10-17T19:04:55.393Z,98601.00
2022-10-17T19:07:23.910Z,98595.75
2022-10-17T19:09:52.404Z,98599.34
2022-10-17T19:12:20.925Z,98602.13
2022-10-17T19:14:50.846Z,98597.41
2022-10-17T19:17:20.727Z,98600.16
2022-10-17T19:19:51.801Z,98603.25
2022-10-17T19:22:20.286Z,98607.66
2022-10-17T19:24:48.721Z,98604.88
2022-10-17T19:27:17.190Z,98610.41
2022-10-17T19:29:45.632Z,98610.41
2022-10-17T19:32:16.933Z,98614.31
2022-10-17T19:34:49.226Z,98618.19
2022-10-17T19:37:17.709Z,98609.91
2022-10-17T19:39:46.138Z,98613.78
2022-10-17T19:42:14.585Z,98614.88
2022-10-17T19:44:43.068Z,98613.56
2022-10-17T19:47:11.517Z,98611.59
2022-10-17T19:49:39.992Z,98620.22
2022-10-17T19:52:09.801Z,98622.16
2022-10-17T19:54:40.470Z,98623.28
2022-10-17T19:57:10.532Z,98621.63
2022-10-17T19:59:39.202Z,98620.00
2022-10-17T20:02:07.660Z,98618.34
2022-10-17T20:04:39.437Z,98617.53
2022-10-17T20:07:11.937Z,98611.19
2022-10-17T20:09:40.401Z,98622.25
2022-10-17T20:12:08.833Z,98619.78
2022-10-17T20:14:40.846Z,98626.13
2022-10-17T20:17:09.626Z,98630.03
2022-10-17T20:19:38.032Z,98630.03
2022-10-17T20:22:06.479Z,98630.34
2022-10-17T20:24:36.304Z,98631.47
2022-10-17T20:27:05.017Z,98632.28
2022-10-17T20:29:33.518Z,98633.41
2022-10-17T20:32:01.952Z,98634.53
2022-10-17T20:34:34.738Z,98635.34
2022-10-17T20:37:03.521Z,98642.81
2022-10-17T20:39:32.057Z,98643.94
2022-10-17T20:42:01.915Z,98644.78
2022-10-17T20:44:30.553Z,98652.25
2022-10-17T20:47:02.322Z,98642.31
2022-10-17T20:52:01.043Z,98645.06
2022-10-17T20:54:29.765Z,98643.44
2022-10-17T20:57:01.051Z,98642.31
2022-10-17T20:59:36.073Z,98635.13
2022-10-17T21:02:05.551Z,98636.25
2022-10-17T21:04:45.770Z,98645.38
2022-10-17T21:07:15.754Z,98643.75
2022-10-17T21:09:45.331Z,98639.03
2022-10-17T21:12:21.557Z,98637.38
2022-10-17T21:15:01.407Z,98634.63
2022-10-17T21:17:29.829Z,98637.38
2022-10-17T21:19:58.355Z,98637.38
2022-10-17T21:22:27.173Z,98638.50
2022-10-17T21:24:55.732Z,98631.34
2022-10-17T21:27:24.183Z,98629.41
2022-10-17T21:29:52.607Z,98634.94
2022-10-17T21:32:33.574Z,98634.09
2022-10-17T21:35:10.894Z,98626.63
2022-10-17T21:37:39.370Z,98629.41
2022-10-17T21:40:09.308Z,98627.44
2022-10-17T21:42:37.736Z,98627.75
2022-10-17T21:45:15.042Z,98632.47
2022-10-17T21:48:10.786Z,98628.56
2022-10-17T21:50:34.199Z,98633.28
2022-10-17T21:53:02.667Z,98632.47
2022-10-17T21:55:31.250Z,98638.00
2022-10-17T21:57:59.685Z,98632.47
2022-10-17T22:00:28.125Z,98638.00
2022-10-17T22:02:57.867Z,98629.69
2022-10-17T22:05:26.377Z,98623.34
2022-10-17T22:07:54.845Z,98626.13
2022-10-17T22:10:23.280Z,98626.94
2022-10-17T22:12:51.715Z,98616.69
2022-10-17T22:15:20.204Z,98620.59
2022-10-17T22:17:48.629Z,98626.94
2022-10-17T22:20:18.656Z,98617.00
2022-10-17T22:22:47.056Z,98621.41
2022-10-17T22:25:15.743Z,98626.94
2022-10-17T22:27:44.139Z,98624.16
2022-10-17T22:30:12.988Z,98620.59
2022-10-17T22:32:41.420Z,98621.41
2022-10-17T22:35:10.621Z,98621.41
2022-10-17T22:37:40.559Z,98612.28
2022-10-17T22:40:09.411Z,98615.88
2022-10-17T22:42:37.821Z,98612.28
2022-10-17T22:45:06.960Z,98614.22
2022-10-17T22:47:35.356Z,98608.69
2022-10-17T22:50:03.996Z,98615.88
2022-10-17T22:52:32.712Z,98605.13
2022-10-17T22:55:04.440Z,98603.19
2022-10-17T22:57:33.018Z,98605.94
2022-10-17T23:00:01.448Z,98608.69
2022-10-17T23:02:30.296Z,98614.22
2022-10-17T23:04:59.461Z,98605.94
2022-10-17T23:07:28.355Z,98608.69
2022-10-17T23:09:56.747Z,98601.53
2022-10-17T23:12:26.692Z,98597.66
2022-10-17T23:14:55.113Z,98601.53
2022-10-17T23:17:23.591Z,98601.53
2022-10-17T23:19:54.221Z,98597.66
2022-10-17T23:22:25.450Z,98596.81
2022-10-17T23:24:54.340Z,98602.34
2022-10-17T23:27:22.853Z,98596.81
2022-10-17T23:29:52.655Z,98593.25
2022-10-17T23:32:21.241Z,98599.91
2022-10-17T23:34:49.841Z,98595.19
2022-10-17T23:37:18.589Z,98594.38
2022-10-17T23:39:47.071Z,98602.66
2022-10-17T23:42:15.534Z,98598.25
2022-10-17T23:44:43.915Z,98601.53
2022-10-17T23:47:14.465Z,98605.41
2022-10-17T23:49:42.929Z,98593.53
2022-10-17T23:52:11.477Z,98602.66
2022-10-17T23:57:13.362Z,98588.84
2022-10-17T23:59:41.757Z,98592.72
